createdAt,value
2019-02-12T00:00:02.079Z,167.75
2019-02-12T00:00:33.298Z,169.37
2019-02-12T00:01:04.548Z,164.22
2019-02-12T00:01:38.055Z,167.65
2019-02-12T00:02:09.322Z,164.20
2019-02-12T00:02:40.538Z,160.18
2019-02-12T00:03:11.762Z,157.65
2019-02-12T00:03:42.972Z,163.92
2019-02-12T00:04:14.244Z,164.67
2019-02-12T00:04:45.487Z,161.00
2019-02-12T00:05:17.794Z,166.90
2019-02-12T00:05:48.999Z,165.68
2019-02-12T00:06:20.255Z,157.20
2019-02-12T00:06:51.500Z,157.12
2019-02-12T00:07:22.757Z,156.47
2019-02-12T00:07:53.960Z,155.93
2019-02-12T00:08:25.184Z,146.77
2019-02-12T00:08:56.391Z,147.90
2019-02-12T00:09:27.757Z,156.57
2019-02-12T00:09:58.978Z,153.02
2019-02-12T00:10:30.224Z,144.32
2019-02-12T00:11:01.571Z,149.53
2019-02-12T00:11:32.784Z,146.10
2019-02-12T00:12:03.994Z,151.40
2019-02-12T00:12:35.224Z,135.25
2019-02-12T00:13:06.415Z,149.65
2019-02-12T00:13:37.662Z,148.43
2019-02-12T00:14:08.902Z,152.78
2019-02-12T00:14:42.207Z,147.82
2019-02-12T00:15:13.462Z,144.40
2019-02-12T00:15:44.691Z,142.72
2019-02-12T00:16:15.951Z,147.82
2019-02-12T00:16:47.161Z,141.25
2019-02-12T00:17:18.397Z,146.40
2019-02-12T00:17:49.631Z,143.07
2019-02-12T00:18:20.863Z,146.45
2019-02-12T00:18:52.074Z,146.30
2019-02-12T00:19:23.303Z,138.82
2019-02-12T00:19:54.605Z,138.65
2019-02-12T00:20:25.811Z,144.30
2019-02-12T00:20:58.129Z,138.35
2019-02-12T00:21:29.346Z,139.32
2019-02-12T00:22:02.603Z,140.62
2019-02-12T00:22:33.829Z,129.53
2019-02-12T00:23:05.048Z,141.55
2019-02-12T00:23:36.287Z,152.40
2019-02-12T00:24:07.495Z,143.43
2019-02-12T00:24:38.712Z,145.90
2019-02-12T00:25:09.927Z,142.43
2019-02-12T00:25:41.192Z,141.05
2019-02-12T00:26:12.410Z,149.55
2019-02-12T00:26:43.615Z,134.40
2019-02-12T00:27:14.851Z,147.15
2019-02-12T00:27:46.110Z,138.90
2019-02-12T00:28:17.321Z,132.70
2019-02-12T00:28:48.550Z,142.90
2019-02-12T00:29:19.757Z,136.68
2019-02-12T00:29:50.985Z,138.90
2019-02-12T00:30:22.193Z,138.65
2019-02-12T00:30:55.701Z,132.63
2019-02-12T00:31:26.893Z,133.63
2019-02-12T00:31:58.110Z,133.27
2019-02-12T00:32:29.325Z,143.28
2019-02-12T00:33:00.584Z,122.75
2019-02-12T00:33:31.816Z,126.87
2019-02-12T00:34:03.021Z,136.50
2019-02-12T00:34:34.218Z,134.82
2019-02-12T00:35:05.483Z,134.32
2019-02-12T00:35:36.691Z,132.15
2019-02-12T00:36:07.901Z,136.20
2019-02-12T00:36:39.122Z,120.65
2019-02-12T00:37:10.355Z,129.97
2019-02-12T00:37:43.597Z,113.20
2019-02-12T00:38:14.829Z,132.60
2019-02-12T00:38:46.039Z,130.72
2019-02-12T00:39:17.313Z,125.15
2019-02-12T00:39:48.835Z,120.62
2019-02-12T00:40:20.079Z,131.65
2019-02-12T00:40:51.293Z,125.05
2019-02-12T00:41:22.535Z,130.50
2019-02-12T00:41:53.741Z,127.20
2019-02-12T00:42:24.950Z,132.18
2019-02-12T00:42:56.207Z,133.80
2019-02-12T00:43:27.408Z,134.95
2019-02-12T00:43:58.659Z,131.47
2019-02-12T00:44:29.949Z,143.20
2019-02-12T00:45:01.165Z,123.45
2019-02-12T00:45:32.373Z,133.78
2019-02-12T00:46:03.598Z,130.10
2019-02-12T00:46:35.000Z,138.37
2019-02-12T00:47:06.220Z,128.60
2019-02-12T00:47:37.502Z,130.10
2019-02-12T00:48:08.821Z,125.02
2019-02-12T00:48:40.102Z,139.00
2019-02-12T00:49:11.362Z,143.02
2019-02-12T00:49:42.933Z,126.35
2019-02-12T00:50:14.150Z,140.55
2019-02-12T00:50:45.364Z,142.28
2019-02-12T00:51:18.001Z,133.87
2019-02-12T00:51:50.484Z,134.65
2019-02-12T00:52:29.101Z,127.20
2019-02-12T00:53:00.311Z,143.28
2019-02-12T00:53:31.546Z,139.03
2019-02-12T00:54:02.769Z,133.32
2019-02-12T00:54:34.015Z,142.15
2019-02-12T00:55:05.243Z,134.95
2019-02-12T00:55:36.462Z,155.67
2019-02-12T00:56:07.672Z,138.80
2019-02-12T00:56:38.900Z,152.15
2019-02-12T00:57:10.156Z,144.15
2019-02-12T00:57:41.358Z,155.35
2019-02-12T00:58:12.577Z,156.90
2019-02-12T00:58:43.792Z,157.32
2019-02-12T00:59:15.463Z,163.18
2019-02-12T00:59:46.667Z,155.45
2019-02-12T01:00:17.878Z,166.15
2019-02-12T01:00:49.079Z,149.35
2019-02-12T01:01:20.291Z,162.62
2019-02-12T01:01:51.511Z,170.43
2019-02-12T01:02:22.714Z,153.70
2019-02-12T01:02:53.948Z,168.60
2019-02-12T01:03:25.145Z,169.53
2019-02-12T01:03:56.985Z,169.43
2019-02-12T01:04:28.269Z,157.67
2019-02-12T01:04:59.502Z,171.40
2019-02-12T01:05:30.757Z,159.97
2019-02-12T01:06:01.989Z,168.85
2019-02-12T01:06:33.201Z,159.75
2019-02-12T01:07:04.411Z,173.62
2019-02-12T01:07:35.639Z,159.70
2019-02-12T01:08:07.971Z,171.98
2019-02-12T01:08:39.222Z,181.57
2019-02-12T01:09:10.444Z,175.97
2019-02-12T01:09:41.667Z,178.23
2019-02-12T01:10:12.874Z,173.70
2019-02-12T01:10:44.084Z,164.62
2019-02-12T01:11:15.299Z,164.60
2019-02-12T01:11:46.518Z,168.68
2019-02-12T01:12:17.731Z,168.93
2019-02-12T01:12:48.941Z,175.03
2019-02-12T01:13:20.215Z,181.90
2019-02-12T01:13:51.436Z,179.93
2019-02-12T01:14:22.685Z,178.23
2019-02-12T01:14:53.903Z,191.90
2019-02-12T01:15:25.125Z,193.20
2019-02-12T01:15:56.365Z,159.43
2019-02-12T01:16:27.576Z,165.88
2019-02-12T01:16:58.777Z,181.50
2019-02-12T01:17:29.985Z,180.05
2019-02-12T01:18:01.212Z,167.35
2019-02-12T01:18:32.478Z,176.87
2019-02-12T01:19:03.705Z,183.22
2019-02-12T01:19:34.947Z,174.32
2019-02-12T01:20:06.160Z,179.85
2019-02-12T01:20:37.366Z,168.37
2019-02-12T01:21:08.597Z,169.15
2019-02-12T01:21:39.811Z,176.68
2019-02-12T01:22:14.065Z,164.97
2019-02-12T01:22:45.274Z,183.55
2019-02-12T01:23:16.549Z,181.02
2019-02-12T01:23:47.769Z,180.32
2019-02-12T01:24:18.988Z,182.15
2019-02-12T01:24:50.193Z,149.25
2019-02-12T01:25:21.410Z,165.30
2019-02-12T01:25:52.627Z,186.18
2019-02-12T01:26:23.877Z,184.15
2019-02-12T01:26:55.073Z,169.85
2019-02-12T01:27:26.284Z,174.57
2019-02-12T01:27:57.587Z,175.68
2019-02-12T01:28:28.799Z,180.07
2019-02-12T01:29:00.028Z,176.25
2019-02-12T01:29:31.242Z,181.30
2019-02-12T01:30:02.460Z,183.20
2019-02-12T01:30:33.668Z,172.85
2019-02-12T01:31:04.900Z,164.25
2019-02-12T01:31:36.106Z,180.20
2019-02-12T01:32:07.349Z,188.87
2019-02-12T01:32:38.553Z,167.20
2019-02-12T01:33:09.824Z,169.07
2019-02-12T01:33:41.035Z,174.93
2019-02-12T01:34:12.291Z,168.17
2019-02-12T01:34:43.486Z,168.68
2019-02-12T01:35:14.698Z,148.50
2019-02-12T01:35:45.985Z,177.35
2019-02-12T01:36:17.194Z,178.72
2019-02-12T01:36:49.559Z,163.45
2019-02-12T01:37:20.777Z,159.70
2019-02-12T01:37:52.019Z,171.50
2019-02-12T01:38:23.247Z,171.95
2019-02-12T01:38:54.472Z,167.07
2019-02-12T01:39:25.687Z,165.62
2019-02-12T01:39:56.899Z,183.68
2019-02-12T01:40:28.172Z,169.80
2019-02-12T01:40:59.411Z,162.15
2019-02-12T01:41:30.714Z,175.27
2019-02-12T01:42:01.949Z,157.95
2019-02-12T01:42:33.231Z,149.70
2019-02-12T01:43:04.791Z,151.22
2019-02-12T01:43:35.992Z,135.60
2019-02-12T01:44:07.231Z,168.55
2019-02-12T01:44:38.536Z,174.00
2019-02-12T01:45:09.762Z,156.47
2019-02-12T01:45:40.975Z,181.32
2019-02-12T01:46:12.193Z,157.27
2019-02-12T01:46:43.419Z,162.43
2019-02-12T01:47:14.702Z,173.90
2019-02-12T01:47:45.920Z,167.45
2019-02-12T01:48:17.131Z,157.57
2019-02-12T01:48:48.343Z,155.80
2019-02-12T01:49:19.577Z,159.35
2019-02-12T01:49:50.787Z,137.85
2019-02-12T01:50:22.011Z,141.03
2019-02-12T01:50:53.223Z,165.28
2019-02-12T01:51:24.430Z,133.43
2019-02-12T01:51:55.636Z,151.27
2019-02-12T01:52:26.897Z,163.80
2019-02-12T01:52:58.173Z,149.10
2019-02-12T01:53:29.401Z,150.78
2019-02-12T01:54:00.666Z,142.82
2019-02-12T01:54:31.867Z,144.45
2019-02-12T01:55:03.078Z,142.55
2019-02-12T01:55:34.296Z,146.00
2019-02-12T01:56:05.507Z,132.80
2019-02-12T01:56:36.744Z,140.45
2019-02-12T01:57:07.986Z,150.93
2019-02-12T01:57:39.202Z,131.97
2019-02-12T01:58:10.494Z,147.68
2019-02-12T01:58:41.692Z,158.68
2019-02-12T01:59:12.921Z,128.15
2019-02-12T01:59:44.151Z,132.82
2019-02-12T02:00:15.358Z,120.05
2019-02-12T02:00:47.538Z,128.55
2019-02-12T02:01:18.780Z,116.37
2019-02-12T02:01:50.001Z,119.55
2019-02-12T02:02:21.228Z,107.70
2019-02-12T02:02:52.440Z,129.12
2019-02-12T02:03:23.646Z,123.82
2019-02-12T02:03:54.862Z,119.15
2019-02-12T02:04:26.095Z,114.03
2019-02-12T02:04:57.318Z,107.50
2019-02-12T02:05:28.537Z,114.85
2019-02-12T02:05:59.796Z,125.07
2019-02-12T02:06:31.097Z,113.05
2019-02-12T02:07:02.324Z,113.35
2019-02-12T02:07:33.611Z,96.25
2019-02-12T02:08:04.827Z,103.00
2019-02-12T02:08:36.060Z,115.82
2019-02-12T02:09:07.293Z,115.52
2019-02-12T02:09:38.504Z,122.37
2019-02-12T02:10:09.797Z,124.72
2019-02-12T02:10:41.013Z,123.02
2019-02-12T02:11:12.228Z,121.13
2019-02-12T02:11:43.450Z,95.10
2019-02-12T02:12:14.677Z,94.22
2019-02-12T02:12:45.942Z,121.53
2019-02-12T02:13:17.161Z,108.07
2019-02-12T02:13:48.407Z,122.10
2019-02-12T02:14:19.642Z,111.83
2019-02-12T02:14:50.844Z,110.65
2019-02-12T02:15:22.064Z,107.43
2019-02-12T02:15:53.298Z,102.02
2019-02-12T02:16:24.528Z,96.20
2019-02-12T02:16:56.803Z,90.07
2019-02-12T02:17:28.016Z,81.08
2019-02-12T02:17:59.277Z,101.15
2019-02-12T02:18:30.507Z,95.67
2019-02-12T02:19:01.736Z,85.55
2019-02-12T02:19:32.941Z,74.67
2019-02-12T02:20:04.162Z,80.65
2019-02-12T02:20:35.369Z,81.25
2019-02-12T02:21:06.591Z,86.78
2019-02-12T02:21:43.913Z,77.27
2019-02-12T02:22:10.736Z,67.58
2019-02-12T02:22:41.962Z,68.25
2019-02-12T02:23:15.438Z,68.00
2019-02-12T02:23:46.663Z,60.95
2019-02-12T02:24:17.874Z,61.98
2019-02-12T02:24:49.532Z,61.28
2019-02-12T02:25:21.222Z,58.33
2019-02-12T02:25:52.433Z,49.00
2019-02-12T02:26:23.654Z,47.35
2019-02-12T02:26:55.242Z,46.58
2019-02-12T02:27:26.464Z,33.53
2019-02-12T02:27:57.681Z,43.23
2019-02-12T02:28:28.896Z,46.33
2019-02-12T02:29:00.118Z,48.17
2019-02-12T02:29:31.337Z,38.45
2019-02-12T02:30:02.569Z,29.02
2019-02-12T02:30:33.813Z,39.33
2019-02-12T02:31:05.029Z,35.23
2019-02-12T02:31:36.252Z,29.95
2019-02-12T02:32:07.477Z,28.12
2019-02-12T02:32:38.822Z,23.47
2019-02-12T02:33:10.011Z,27.50
2019-02-12T02:33:41.223Z,19.73
2019-02-12T02:34:12.444Z,28.62
2019-02-12T02:34:46.567Z,25.02
2019-02-12T02:35:17.790Z,20.20
2019-02-12T02:35:49.035Z,26.23
2019-02-12T02:36:20.248Z,21.02
2019-02-12T02:36:51.908Z,14.75
2019-02-12T02:37:23.153Z,19.07
2019-02-12T02:37:54.364Z,16.20
2019-02-12T02:38:25.591Z,14.78
2019-02-12T02:38:56.806Z,15.55
2019-02-12T02:39:28.048Z,14.60
2019-02-12T02:39:59.259Z,12.30
2019-02-12T02:40:30.458Z,12.90
2019-02-12T02:41:01.683Z,10.82
2019-02-12T02:41:32.880Z,12.73
2019-02-12T02:42:05.233Z,12.93
2019-02-12T02:42:37.214Z,13.80
2019-02-12T02:43:08.451Z,8.48
2019-02-12T02:43:39.634Z,7.17
2019-02-12T02:44:10.838Z,10.40
2019-02-12T02:44:42.046Z,8.70
2019-02-12T02:45:13.275Z,5.33
2019-02-12T02:45:44.475Z,14.15
2019-02-12T02:46:15.685Z,7.42
2019-02-12T02:46:47.903Z,16.05
2019-02-12T02:47:19.119Z,17.25
2019-02-12T02:47:50.381Z,6.42
2019-02-12T02:48:21.588Z,5.50
2019-02-12T02:48:53.209Z,8.60
2019-02-12T02:49:24.422Z,3.87
2019-02-12T02:49:56.437Z,6.15
2019-02-12T02:50:27.719Z,4.37
2019-02-12T02:50:58.929Z,5.80
2019-02-12T02:51:30.166Z,3.70
2019-02-12T02:52:01.416Z,3.12
2019-02-12T02:52:32.627Z,2.90
2019-02-12T02:53:03.831Z,3.00
2019-02-12T02:53:35.036Z,2.60
2019-02-12T02:54:06.260Z,8.05
2019-02-12T02:54:37.484Z,3.15
2019-02-12T02:55:08.685Z,3.30
2019-02-12T02:55:39.908Z,3.77
2019-02-12T02:56:11.150Z,3.55
2019-02-12T02:56:42.370Z,4.50
2019-02-12T02:57:13.597Z,2.65
2019-02-12T02:57:44.839Z,3.05
2019-02-12T02:58:16.085Z,2.98
2019-02-12T02:58:47.312Z,8.03
2019-02-12T02:59:18.527Z,2.98
2019-02-12T02:59:49.718Z,2.50
2019-02-12T03:00:20.957Z,6.50
2019-02-12T03:00:52.486Z,2.33
2019-02-12T03:01:23.714Z,3.12
2019-02-12T03:01:54.899Z,1.82
2019-02-12T03:02:26.111Z,2.98
2019-02-12T03:02:57.375Z,2.15
2019-02-12T03:03:28.571Z,2.52
2019-02-12T03:03:59.808Z,2.15
2019-02-12T03:04:31.058Z,5.08
2019-02-12T03:05:03.312Z,6.12
2019-02-12T03:05:34.642Z,4.17
2019-02-12T03:06:05.909Z,3.15
2019-02-12T03:06:37.134Z,2.20
2019-02-12T03:07:08.375Z,1.95
2019-02-12T03:07:39.604Z,2.02
2019-02-12T03:08:11.225Z,2.70
2019-02-12T03:08:42.430Z,2.70
2019-02-12T03:09:13.651Z,2.10
2019-02-12T03:09:44.881Z,7.22
2019-02-12T03:10:16.104Z,4.15
2019-02-12T03:10:47.362Z,2.05
2019-02-12T03:11:18.567Z,2.67
2019-02-12T03:11:49.784Z,2.47
2019-02-12T03:12:21.005Z,2.72
2019-02-12T03:12:52.204Z,2.30
2019-02-12T03:13:30.687Z,3.58
2019-02-12T03:14:01.900Z,2.00
2019-02-12T03:14:33.140Z,2.47
2019-02-12T03:15:06.513Z,2.33
2019-02-12T03:15:37.722Z,3.30
2019-02-12T03:16:08.916Z,3.27
2019-02-12T03:16:40.170Z,2.65
2019-02-12T03:17:11.367Z,2.02
2019-02-12T03:17:42.590Z,2.25
2019-02-12T03:18:13.776Z,2.62
2019-02-12T03:18:45.026Z,2.05
2019-02-12T03:19:16.221Z,2.35
2019-02-12T03:19:47.840Z,2.58
2019-02-12T03:20:19.102Z,3.40
2019-02-12T03:20:52.669Z,2.27
2019-02-12T03:21:23.901Z,2.58
2019-02-12T03:22:03.500Z,2.62
2019-02-12T03:22:28.076Z,2.40
2019-02-12T03:22:59.299Z,3.42
2019-02-12T03:23:30.503Z,2.27
2019-02-12T03:24:01.698Z,2.22
2019-02-12T03:24:32.898Z,2.52
2019-02-12T03:25:04.189Z,2.58
2019-02-12T03:25:35.426Z,2.30
2019-02-12T03:26:06.679Z,2.33
2019-02-12T03:26:37.900Z,2.95
2019-02-12T03:27:09.100Z,2.20
2019-02-12T03:27:40.302Z,2.58
2019-02-12T03:28:11.540Z,2.37
2019-02-12T03:28:42.746Z,2.30
2019-02-12T03:29:13.949Z,2.10
2019-02-12T03:29:45.186Z,2.33
2019-02-12T03:30:16.486Z,2.20
2019-02-12T03:30:47.697Z,2.22
2019-02-12T03:31:18.963Z,2.25
2019-02-12T03:31:50.205Z,2.02
2019-02-12T03:32:21.451Z,2.45
2019-02-12T03:32:52.643Z,2.12
2019-02-12T03:33:23.846Z,2.25
2019-02-12T03:33:55.061Z,3.40
2019-02-12T03:34:26.302Z,2.17
2019-02-12T03:34:57.513Z,2.98
2019-02-12T03:35:28.725Z,2.37
2019-02-12T03:35:59.939Z,2.22
2019-02-12T03:36:31.139Z,2.22
2019-02-12T03:37:02.349Z,2.40
2019-02-12T03:37:33.599Z,2.05
2019-02-12T03:38:04.814Z,2.42
2019-02-12T03:38:36.012Z,2.83
2019-02-12T03:39:07.249Z,3.02
2019-02-12T03:39:38.454Z,3.50
2019-02-12T03:40:09.696Z,2.27
2019-02-12T03:40:40.912Z,2.83
2019-02-12T03:41:13.210Z,2.40
2019-02-12T03:41:44.415Z,3.40
2019-02-12T03:42:15.625Z,2.25
2019-02-12T03:42:46.902Z,3.58
2019-02-12T03:43:18.117Z,3.45
2019-02-12T03:43:49.323Z,3.90
2019-02-12T03:44:20.511Z,3.40
2019-02-12T03:44:51.722Z,4.03
2019-02-12T03:45:22.914Z,3.50
2019-02-12T03:45:54.130Z,3.58
2019-02-12T03:46:25.338Z,3.95
2019-02-12T03:46:56.535Z,3.80
2019-02-12T03:47:27.759Z,4.03
2019-02-12T03:47:59.029Z,3.62
2019-02-12T03:48:30.255Z,3.85
2019-02-12T03:49:01.570Z,3.90
2019-02-12T03:49:33.819Z,4.10
2019-02-12T03:50:05.040Z,4.12
2019-02-12T03:50:36.311Z,3.75
2019-02-12T03:51:07.519Z,3.77
2019-02-12T03:51:40.777Z,3.75
2019-02-12T03:52:13.247Z,4.53
2019-02-12T03:52:44.583Z,4.10
2019-02-12T03:53:15.794Z,3.58
2019-02-12T03:53:49.286Z,4.00
2019-02-12T03:54:20.494Z,5.40
2019-02-12T03:54:51.693Z,4.42
2019-02-12T03:55:22.918Z,3.05
2019-02-12T03:55:54.178Z,3.52
2019-02-12T03:56:25.399Z,3.80
2019-02-12T03:56:56.602Z,3.58
2019-02-12T03:57:27.790Z,3.85
2019-02-12T03:57:59.022Z,3.58
2019-02-12T03:58:30.221Z,7.42
2019-02-12T03:59:01.502Z,3.50
2019-02-12T03:59:32.693Z,3.17
2019-02-12T04:00:03.891Z,3.00
2019-02-12T04:00:37.357Z,3.40
2019-02-12T04:01:08.567Z,2.80
2019-02-12T04:01:39.783Z,2.77
2019-02-12T04:02:14.062Z,3.50
2019-02-12T04:02:45.253Z,3.15
2019-02-12T04:03:16.485Z,3.20
2019-02-12T04:03:47.709Z,2.80
2019-02-12T04:04:18.964Z,4.67
2019-02-12T04:04:50.164Z,5.40
2019-02-12T04:05:21.367Z,3.30
2019-02-12T04:05:52.588Z,3.40
2019-02-12T04:06:23.817Z,3.10
2019-02-12T04:06:55.034Z,3.37
2019-02-12T04:07:26.307Z,3.67
2019-02-12T04:07:57.501Z,3.67
2019-02-12T04:08:28.753Z,3.50
2019-02-12T04:08:59.962Z,2.98
2019-02-12T04:09:31.183Z,3.27
2019-02-12T04:10:02.700Z,3.58
2019-02-12T04:10:33.984Z,3.40
2019-02-12T04:11:05.174Z,4.75
2019-02-12T04:11:36.418Z,3.35
2019-02-12T04:12:07.630Z,3.80
2019-02-12T04:12:38.905Z,3.15
2019-02-12T04:13:12.578Z,2.72
2019-02-12T04:13:43.742Z,3.05
2019-02-12T04:14:14.959Z,2.90
2019-02-12T04:14:46.180Z,3.17
2019-02-12T04:15:17.497Z,3.52
2019-02-12T04:15:48.739Z,2.77
2019-02-12T04:16:19.969Z,2.67
2019-02-12T04:16:51.169Z,3.22
2019-02-12T04:17:22.392Z,3.35
2019-02-12T04:17:53.594Z,3.10
2019-02-12T04:18:25.618Z,3.05
2019-02-12T04:18:56.844Z,2.58
2019-02-12T04:19:28.068Z,2.40
2019-02-12T04:19:59.321Z,3.02
2019-02-12T04:20:31.550Z,2.27
2019-02-12T04:21:02.776Z,2.60
2019-02-12T04:21:34.020Z,2.12
2019-02-12T04:22:05.254Z,3.15
2019-02-12T04:22:36.478Z,2.60
2019-02-12T04:23:07.722Z,2.20
2019-02-12T04:23:41.014Z,2.60
2019-02-12T04:24:12.218Z,1.90
2019-02-12T04:24:43.476Z,3.52
2019-02-12T04:25:14.697Z,2.47
2019-02-12T04:25:45.973Z,2.70
2019-02-12T04:26:17.669Z,1.95
2019-02-12T04:26:48.928Z,1.87
2019-02-12T04:27:20.107Z,2.80
2019-02-12T04:27:51.331Z,2.40
2019-02-12T04:28:22.537Z,1.80
2019-02-12T04:28:53.755Z,2.70
2019-02-12T04:29:25.002Z,3.02
2019-02-12T04:29:56.239Z,2.30
2019-02-12T04:30:27.431Z,2.17
2019-02-12T04:30:59.706Z,3.00
2019-02-12T04:31:30.932Z,2.87
2019-02-12T04:32:02.146Z,3.05
2019-02-12T04:32:33.410Z,3.67
2019-02-12T04:33:05.013Z,3.62
2019-02-12T04:33:36.207Z,3.35
2019-02-12T04:34:07.440Z,3.30
2019-02-12T04:34:38.709Z,3.50
2019-02-12T04:35:11.031Z,5.95
2019-02-12T04:35:42.248Z,4.22
2019-02-12T04:36:13.484Z,4.03
2019-02-12T04:36:44.812Z,4.22
2019-02-12T04:37:16.008Z,3.80
2019-02-12T04:37:47.229Z,3.35
2019-02-12T04:38:18.443Z,3.60
2019-02-12T04:38:49.632Z,2.98
2019-02-12T04:39:23.143Z,4.33
2019-02-12T04:39:57.249Z,3.40
2019-02-12T04:40:28.469Z,3.45
2019-02-12T04:40:59.681Z,3.55
2019-02-12T04:41:30.898Z,3.02
2019-02-12T04:42:02.124Z,3.55
2019-02-12T04:42:33.340Z,2.87
2019-02-12T04:43:04.579Z,3.00
2019-02-12T04:43:35.832Z,3.72
2019-02-12T04:44:07.055Z,2.80
2019-02-12T04:44:38.330Z,3.27
2019-02-12T04:45:09.530Z,3.10
2019-02-12T04:45:40.781Z,3.15
2019-02-12T04:46:12.021Z,2.60
2019-02-12T04:46:45.542Z,2.77
2019-02-12T04:47:16.781Z,2.37
2019-02-12T04:47:47.978Z,2.33
2019-02-12T04:48:19.264Z,2.25
2019-02-12T04:48:51.491Z,2.47
2019-02-12T04:49:22.703Z,2.72
2019-02-12T04:49:53.912Z,2.60
2019-02-12T04:50:25.111Z,3.20
2019-02-12T04:50:56.308Z,3.10
2019-02-12T04:51:27.502Z,2.72
2019-02-12T04:51:58.700Z,2.62
2019-02-12T04:52:31.926Z,3.65
2019-02-12T04:53:03.351Z,3.00
2019-02-12T04:53:34.533Z,2.58
2019-02-12T04:54:05.834Z,3.10
2019-02-12T04:54:37.064Z,3.20
2019-02-12T04:55:08.270Z,2.90
2019-02-12T04:55:39.500Z,3.10
2019-02-12T04:56:13.016Z,3.47
2019-02-12T04:56:44.221Z,2.77
2019-02-12T04:57:15.433Z,2.55
2019-02-12T04:57:46.643Z,2.42
2019-02-12T04:58:17.849Z,2.42
2019-02-12T04:58:49.049Z,3.30
2019-02-12T04:59:20.299Z,3.72
2019-02-12T04:59:51.513Z,2.83
2019-02-12T05:00:22.735Z,2.92
2019-02-12T05:00:55.052Z,3.12
2019-02-12T05:01:26.240Z,3.20
2019-02-12T05:01:57.460Z,3.12
2019-02-12T05:02:28.672Z,2.98
2019-02-12T05:02:59.911Z,3.40
2019-02-12T05:03:31.122Z,2.92
2019-02-12T05:04:02.365Z,3.25
2019-02-12T05:04:33.604Z,3.47
2019-02-12T05:05:04.812Z,3.92
2019-02-12T05:05:36.032Z,3.50
2019-02-12T05:06:09.763Z,3.27
2019-02-12T05:06:40.968Z,3.45
2019-02-12T05:07:12.167Z,3.25
2019-02-12T05:07:43.391Z,4.33
2019-02-12T05:08:14.638Z,3.33
2019-02-12T05:08:45.849Z,3.60
2019-02-12T05:09:17.065Z,4.47
2019-02-12T05:09:48.262Z,4.05
2019-02-12T05:10:19.519Z,3.12
2019-02-12T05:10:50.819Z,3.00
2019-02-12T05:11:22.019Z,3.47
2019-02-12T05:11:53.229Z,3.30
2019-02-12T05:12:24.437Z,3.35
2019-02-12T05:12:55.634Z,3.12
2019-02-12T05:13:26.861Z,2.62
2019-02-12T05:13:58.059Z,2.67
2019-02-12T05:14:29.292Z,3.12
2019-02-12T05:15:00.503Z,3.40
2019-02-12T05:15:31.751Z,3.20
2019-02-12T05:16:03.039Z,3.15
2019-02-12T05:16:34.242Z,2.92
2019-02-12T05:17:05.501Z,2.83
2019-02-12T05:17:36.705Z,2.55
2019-02-12T05:18:07.974Z,3.70
2019-02-12T05:18:39.172Z,2.30
2019-02-12T05:19:10.392Z,2.80
2019-02-12T05:19:41.655Z,2.77
2019-02-12T05:20:12.847Z,2.75
2019-02-12T05:20:44.108Z,2.92
2019-02-12T05:21:15.285Z,3.15
2019-02-12T05:21:46.481Z,2.92
2019-02-12T05:22:17.760Z,3.17
2019-02-12T05:22:48.995Z,3.37
2019-02-12T05:23:20.235Z,2.50
2019-02-12T05:23:51.477Z,3.20
2019-02-12T05:24:22.665Z,2.60
2019-02-12T05:24:53.914Z,2.77
2019-02-12T05:25:25.118Z,2.90
2019-02-12T05:25:56.341Z,2.87
2019-02-12T05:26:27.515Z,2.77
2019-02-12T05:26:58.740Z,3.22
2019-02-12T05:27:29.987Z,3.47
2019-02-12T05:28:01.245Z,3.30
2019-02-12T05:28:32.464Z,3.30
2019-02-12T05:29:03.666Z,2.80
2019-02-12T05:29:34.881Z,2.92
2019-02-12T05:30:06.096Z,3.17
2019-02-12T05:30:37.338Z,3.22
2019-02-12T05:31:08.554Z,3.75
2019-02-12T05:31:39.781Z,3.70
2019-02-12T05:32:11.086Z,3.72
2019-02-12T05:32:42.274Z,3.00
2019-02-12T05:33:13.483Z,3.47
2019-02-12T05:33:44.688Z,3.55
2019-02-12T05:34:15.908Z,2.67
2019-02-12T05:34:47.113Z,3.15
2019-02-12T05:35:18.329Z,3.00
2019-02-12T05:35:49.722Z,3.83
2019-02-12T05:36:20.943Z,3.65
2019-02-12T05:36:52.147Z,3.95
2019-02-12T05:37:23.358Z,3.37
2019-02-12T05:37:54.545Z,3.92
2019-02-12T05:38:25.769Z,3.87
2019-02-12T05:38:56.979Z,3.87
2019-02-12T05:39:29.322Z,2.83
2019-02-12T05:40:00.532Z,2.47
2019-02-12T05:40:31.753Z,3.00
2019-02-12T05:41:03.080Z,2.65
2019-02-12T05:41:34.291Z,2.42
2019-02-12T05:42:05.492Z,2.60
2019-02-12T05:42:36.698Z,3.90
2019-02-12T05:43:09.948Z,2.47
2019-02-12T05:43:43.164Z,2.47
2019-02-12T05:44:14.387Z,2.40
2019-02-12T05:44:45.610Z,1.90
2019-02-12T05:45:16.843Z,2.45
2019-02-12T05:45:48.170Z,1.82
2019-02-12T05:46:19.388Z,2.33
2019-02-12T05:46:50.584Z,2.00
2019-02-12T05:47:21.828Z,2.98
2019-02-12T05:47:53.154Z,1.77
2019-02-12T05:48:24.487Z,3.02
2019-02-12T05:48:55.680Z,2.42
2019-02-12T05:49:26.912Z,2.08
2019-02-12T05:49:58.184Z,2.30
2019-02-12T05:50:29.389Z,3.15
2019-02-12T05:51:00.596Z,2.83
2019-02-12T05:51:31.788Z,1.87
2019-02-12T05:52:03.001Z,2.40
2019-02-12T05:52:36.263Z,2.70
2019-02-12T05:53:07.518Z,3.30
2019-02-12T05:53:38.950Z,1.95
2019-02-12T05:54:10.165Z,1.52
2019-02-12T05:54:41.433Z,1.80
2019-02-12T05:55:12.665Z,2.10
2019-02-12T05:55:43.955Z,3.35
2019-02-12T05:56:15.153Z,2.37
2019-02-12T05:56:46.352Z,2.55
2019-02-12T05:57:17.602Z,2.10
2019-02-12T05:57:48.790Z,2.40
2019-02-12T05:58:20.219Z,2.27
2019-02-12T05:58:51.395Z,2.50
2019-02-12T05:59:22.642Z,2.60
2019-02-12T05:59:53.885Z,2.70
2019-02-12T06:00:25.113Z,2.87
2019-02-12T06:00:56.353Z,3.42
2019-02-12T06:01:27.629Z,3.50
2019-02-12T06:01:58.884Z,3.60
2019-02-12T06:02:30.421Z,4.28
2019-02-12T06:03:01.665Z,3.98
2019-02-12T06:03:32.874Z,4.12
2019-02-12T06:04:04.081Z,3.85
2019-02-12T06:04:35.300Z,4.60
2019-02-12T06:05:06.495Z,4.00
2019-02-12T06:05:37.726Z,5.30
2019-02-12T06:06:08.955Z,3.40
2019-02-12T06:06:40.184Z,5.50
2019-02-12T06:07:11.733Z,4.92
2019-02-12T06:07:42.925Z,5.03
2019-02-12T06:08:14.138Z,5.53
2019-02-12T06:08:45.410Z,4.20
2019-02-12T06:09:16.621Z,3.62
2019-02-12T06:09:47.845Z,4.10
2019-02-12T06:10:19.040Z,7.15
2019-02-12T06:10:50.285Z,4.62
2019-02-12T06:11:21.866Z,10.35
2019-02-12T06:11:53.091Z,6.55
2019-02-12T06:12:24.677Z,4.25
2019-02-12T06:12:57.183Z,4.20
2019-02-12T06:13:28.411Z,3.85
2019-02-12T06:13:59.656Z,5.45
2019-02-12T06:14:30.863Z,4.58
2019-02-12T06:15:02.077Z,5.97
2019-02-12T06:15:33.272Z,7.35
2019-02-12T06:16:04.498Z,4.95
2019-02-12T06:16:35.693Z,5.60
2019-02-12T06:17:06.936Z,5.78
2019-02-12T06:17:38.154Z,7.33
2019-02-12T06:18:09.430Z,7.33
2019-02-12T06:18:40.594Z,7.60
2019-02-12T06:19:11.815Z,9.23
2019-02-12T06:19:43.003Z,8.33
2019-02-12T06:20:14.226Z,5.00
2019-02-12T06:20:45.806Z,5.45
2019-02-12T06:21:17.019Z,6.37
2019-02-12T06:21:48.298Z,7.67
2019-02-12T06:22:19.511Z,5.87
2019-02-12T06:22:50.711Z,5.60
2019-02-12T06:23:21.932Z,6.65
2019-02-12T06:23:53.127Z,4.45
2019-02-12T06:24:27.451Z,5.92
2019-02-12T06:24:58.660Z,8.60
2019-02-12T06:25:29.869Z,4.40
2019-02-12T06:26:01.087Z,4.22
2019-02-12T06:26:32.273Z,4.95
2019-02-12T06:27:03.513Z,4.60
2019-02-12T06:27:34.709Z,4.10
2019-02-12T06:28:05.922Z,4.20
2019-02-12T06:28:37.133Z,3.75
2019-02-12T06:29:10.632Z,3.37
2019-02-12T06:29:41.871Z,4.20
2019-02-12T06:30:13.069Z,5.35
2019-02-12T06:30:44.381Z,4.00
2019-02-12T06:31:15.603Z,3.70
2019-02-12T06:31:46.809Z,4.50
2019-02-12T06:32:18.039Z,3.77
2019-02-12T06:32:49.257Z,4.85
2019-02-12T06:33:20.468Z,4.10
2019-02-12T06:33:51.654Z,4.95
2019-02-12T06:34:22.864Z,3.83
2019-02-12T06:34:54.075Z,6.87
2019-02-12T06:35:26.351Z,3.75
2019-02-12T06:35:57.552Z,6.05
2019-02-12T06:36:28.824Z,3.92
2019-02-12T06:37:00.010Z,3.50
2019-02-12T06:37:31.689Z,3.33
2019-02-12T06:38:02.939Z,4.72
2019-02-12T06:38:34.116Z,4.33
2019-02-12T06:39:05.319Z,3.70
2019-02-12T06:39:36.544Z,3.35
2019-02-12T06:40:07.761Z,4.92
2019-02-12T06:40:38.984Z,5.10
2019-02-12T06:41:10.191Z,3.45
2019-02-12T06:41:41.452Z,3.33
2019-02-12T06:42:13.667Z,4.05
2019-02-12T06:42:44.874Z,3.25
2019-02-12T06:43:16.103Z,3.72
2019-02-12T06:43:47.638Z,4.12
2019-02-12T06:44:18.866Z,2.52
2019-02-12T06:44:50.067Z,3.42
2019-02-12T06:45:21.290Z,2.95
2019-02-12T06:45:52.535Z,3.27
2019-02-12T06:46:23.756Z,3.58
2019-02-12T06:46:55.020Z,3.30
2019-02-12T06:47:26.239Z,3.20